Time;durP1;ratioP1;P1;durP2;ratioP2;P2;SDS_P1;SDS_P2;PMS_P1;PMS_P2;Temp;Humidity;BMP_temperature;BMP_pressure;BME280_temperature;BME280_humidity;BME280_pressure;Samples;Min_cycle;Max_cycle;Signal;HPM_P1;HPM_P2
2024/02/19 00:01:30;;;;;;;13.75;6.90;;;;;;;;;;5009159;28;20256;-91
2024/02/19 00:04:36;;;;;;;12.98;6.05;;;;;;;;;;5007977;28;20173;-92
2024/02/19 00:07:41;;;;;;;16.92;6.60;;;;;;;;;;5007924;28;20265;-93
2024/02/19 00:10:48;;;;;;;12.95;5.63;;;;;;;;;;5008897;28;20186;-90
2024/02/19 00:13:57;;;;;;;13.57;6.35;;;;;;;;;;5008002;28;20189;-92
2024/02/19 00:17:02;;;;;;;15.85;6.28;;;;;;;;;;5008483;28;20196;-91
2024/02/19 00:20:08;;;;;;;13.82;6.75;;;;;;;;;;4997419;28;20218;-91
2024/02/19 00:23:14;;;;;;;14.77;6.88;;;;;;;;;;4989665;28;20279;-92
2024/02/19 00:29:42;;;;;;;14.43;6.75;;;;;;;;;;4989710;28;20213;-93
2024/02/19 00:32:48;;;;;;;17.15;6.60;;;;;;;;;;4987768;28;20713;-92
2024/02/19 00:35:54;;;;;;;15.15;7.00;;;;;;;;;;4987737;28;20190;-93
2024/02/19 00:38:59;;;;;;;17.58;6.70;;;;;;;;;;4987312;28;20186;-92
2024/02/19 00:45:08;;;;;;;13.18;6.15;;;;;;;;;;4967047;28;20215;-91
2024/02/19 00:48:13;;;;;;;15.10;7.03;;;;;;;;;;4968982;28;20251;-93
2024/02/19 00:51:18;;;;;;;14.05;6.93;;;;;;;;;;4968001;29;20257;-93
2024/02/19 00:54:24;;;;;;;17.05;7.25;;;;;;;;;;4967642;28;20211;-93
2024/02/19 00:57:29;;;;;;;11.88;6.22;;;;;;;;;;4966940;29;20234;-90
2024/02/19 01:00:36;;;;;;;12.30;5.90;;;;;;;;;;4967730;29;20217;-92
2024/02/19 01:03:45;;;;;;;11.85;6.30;;;;;;;;;;4957049;28;20351;-93
2024/02/19 01:06:50;;;;;;;16.58;7.53;;;;;;;;;;4969733;28;20207;-94
2024/02/19 01:09:55;;;;;;;15.57;7.65;;;;;;;;;;4968729;28;20194;-93
2024/02/19 01:13:01;;;;;;;14.60;7.25;;;;;;;;;;4967411;29;20207;-93
2024/02/19 01:16:09;;;;;;;17.65;8.13;;;;;;;;;;4967093;29;20186;-92
2024/02/19 01:19:14;;;;;;;15.68;8.23;;;;;;;;;;4969391;28;20186;-91
2024/02/19 01:22:20;;;;;;;17.25;8.32;;;;;;;;;;4968264;28;20238;-92
2024/02/19 01:25:25;;;;;;;18.25;8.90;;;;;;;;;;4971735;28;20252;-93
2024/02/19 01:28:31;;;;;;;15.75;7.78;;;;;;;;;;4984294;28;20224;-94
2024/02/19 01:31:37;;;;;;;15.88;8.20;;;;;;;;;;4985226;28;20186;-92
2024/02/19 01:34:43;;;;;;;19.08;9.75;;;;;;;;;;4985152;28;20201;-92
2024/02/19 01:37:47;;;;;;;20.38;10.35;;;;;;;;;;4985365;28;20189;-93
2024/02/19 01:40:53;;;;;;;23.85;10.82;;;;;;;;;;4985910;28;20268;-92
2024/02/19 01:43:58;;;;;;;17.25;9.75;;;;;;;;;;4985979;28;20289;-94
2024/02/19 01:47:05;;;;;;;16.33;9.32;;;;;;;;;;4984408;28;20205;-91
2024/02/19 01:50:10;;;;;;;17.08;9.00;;;;;;;;;;4984502;28;20181;-91
2024/02/19 01:53:16;;;;;;;21.13;9.05;;;;;;;;;;4986217;28;20182;-92
2024/02/19 01:56:21;;;;;;;19.50;9.57;;;;;;;;;;4988477;28;20234;-94
2024/02/19 01:59:27;;;;;;;19.67;9.50;;;;;;;;;;4986775;28;20322;-93
2024/02/19 02:02:33;;;;;;;23.73;10.90;;;;;;;;;;4986884;28;20197;-95
2024/02/19 02:05:39;;;;;;;22.45;11.05;;;;;;;;;;4983901;28;20201;-93
2024/02/19 02:08:44;;;;;;;22.52;10.90;;;;;;;;;;4984637;28;20201;-92
2024/02/19 02:11:49;;;;;;;23.98;11.23;;;;;;;;;;4945939;28;20319;-93
2024/02/19 02:14:55;;;;;;;28.25;13.30;;;;;;;;;;4945441;29;20199;-91
2024/02/19 02:18:01;;;;;;;26.92;12.18;;;;;;;;;;4947857;28;20187;-93
2024/02/19 02:21:07;;;;;;;25.17;11.60;;;;;;;;;;4946890;28;20217;-92
2024/02/19 02:24:12;;;;;;;19.75;10.13;;;;;;;;;;4946775;29;20191;-92
2024/02/19 02:27:19;;;;;;;21.38;9.85;;;;;;;;;;4947592;28;20548;-91
2024/02/19 02:30:25;;;;;;;21.52;10.77;;;;;;;;;;4946793;28;20194;-93
2024/02/19 02:33:30;;;;;;;19.40;8.05;;;;;;;;;;4947767;28;20752;-92
2024/02/19 02:36:35;;;;;;;18.65;8.05;;;;;;;;;;4945961;28;20194;-91
2024/02/19 02:39:41;;;;;;;16.10;7.90;;;;;;;;;;4944911;28;20262;-91
2024/02/19 02:42:49;;;;;;;17.55;7.97;;;;;;;;;;4945271;28;20183;-91
2024/02/19 02:45:54;;;;;;;15.40;7.10;;;;;;;;;;4946113;28;20190;-94
2024/02/19 02:48:59;;;;;;;16.08;6.70;;;;;;;;;;4946498;28;20191;-92
2024/02/19 02:52:04;;;;;;;14.52;6.60;;;;;;;;;;4946905;29;20214;-93
2024/02/19 02:55:10;;;;;;;15.75;6.05;;;;;;;;;;4945987;29;20180;-94
2024/02/19 02:58:16;;;;;;;14.95;6.55;;;;;;;;;;4946480;28;20187;-92
2024/02/19 03:01:22;;;;;;;12.68;5.72;;;;;;;;;;4947053;28;20242;-94
2024/02/19 03:04:28;;;;;;;11.43;5.18;;;;;;;;;;4961731;28;20663;-91
2024/02/19 03:07:33;;;;;;;7.53;3.05;;;;;;;;;;4985224;28;20193;-92
2024/02/19 03:10:38;;;;;;;1.58;0.90;;;;;;;;;;4988387;28;20181;-93
2024/02/19 03:13:45;;;;;;;2.20;1.17;;;;;;;;;;4988785;28;20197;-94
2024/02/19 03:16:50;;;;;;;3.25;0.82;;;;;;;;;;4980221;28;20223;-93
2024/02/19 03:19:55;;;;;;;0.77;0.77;;;;;;;;;;4969854;28;20178;-92
2024/02/19 03:23:00;;;;;;;0.55;0.55;;;;;;;;;;4969421;28;20665;-93
2024/02/19 03:26:05;;;;;;;0.88;0.77;;;;;;;;;;4968895;28;20417;-91
2024/02/19 03:29:12;;;;;;;1.70;1.10;;;;;;;;;;4977781;28;20816;-92
2024/02/19 03:32:18;;;;;;;0.70;0.70;;;;;;;;;;4988285;28;20191;-91
2024/02/19 03:35:23;;;;;;;0.30;0.30;;;;;;;;;;4988728;28;20553;-92
2024/02/19 03:38:28;;;;;;;0.73;0.73;;;;;;;;;;4989241;28;20190;-92
2024/02/19 03:41:34;;;;;;;0.88;0.88;;;;;;;;;;4987959;28;20218;-93
2024/02/19 03:44:41;;;;;;;1.25;1.15;;;;;;;;;;4973282;28;20243;-93
2024/02/19 03:47:46;;;;;;;0.60;0.60;;;;;;;;;;4968994;28;20213;-92
2024/02/19 03:50:50;;;;;;;3.95;1.20;;;;;;;;;;4969474;28;20190;-94
2024/02/19 03:53:55;;;;;;;0.30;0.30;;;;;;;;;;4969860;28;20203;-94
2024/02/19 03:57:01;;;;;;;0.52;0.52;;;;;;;;;;4967240;29;20310;-92
2024/02/19 04:00:12;;;;;;;0.77;0.70;;;;;;;;;;4968714;28;20199;-91
2024/02/19 04:03:18;;;;;;;0.50;0.50;;;;;;;;;;4949866;28;20247;-93
2024/02/19 04:06:23;;;;;;;0.65;0.60;;;;;;;;;;4969778;28;20198;-92
2024/02/19 04:09:28;;;;;;;0.47;0.47;;;;;;;;;;4988636;28;20685;-93
2024/02/19 04:12:34;;;;;;;0.47;0.47;;;;;;;;;;4988216;28;20209;-92
2024/02/19 04:15:42;;;;;;;0.32;0.32;;;;;;;;;;4989582;28;20190;-94
2024/02/19 04:18:47;;;;;;;1.98;0.70;;;;;;;;;;4978813;28;20206;-92
2024/02/19 04:21:53;;;;;;;0.65;0.65;;;;;;;;;;4966996;28;20226;-93
2024/02/19 04:24:58;;;;;;;0.40;0.40;;;;;;;;;;4969464;29;20179;-92
2024/02/19 04:28:03;;;;;;;1.88;0.90;;;;;;;;;;4966748;29;20291;-91
2024/02/19 04:31:13;;;;;;;0.47;0.47;;;;;;;;;;4968080;28;20178;-91
2024/02/19 04:34:18;;;;;;;0.35;0.35;;;;;;;;;;4968431;28;20195;-91
2024/02/19 04:37:23;;;;;;;0.30;0.30;;;;;;;;;;4968870;28;20199;-92
2024/02/19 04:40:28;;;;;;;1.35;0.63;;;;;;;;;;4969104;28;20580;-93
2024/02/19 04:43:33;;;;;;;0.35;0.35;;;;;;;;;;4970653;28;20230;-94
2024/02/19 04:46:40;;;;;;;0.57;0.57;;;;;;;;;;4969222;28;20206;-93
2024/02/19 04:49:45;;;;;;;0.40;0.40;;;;;;;;;;4967450;29;20190;-94
2024/02/19 04:52:51;;;;;;;0.30;0.30;;;;;;;;;;4967680;28;20658;-93
2024/02/19 04:55:56;;;;;;;0.40;0.40;;;;;;;;;;4967900;28;20209;-92
2024/02/19 04:59:02;;;;;;;0.38;0.38;;;;;;;;;;4967930;28;20198;-92
2024/02/19 05:02:08;;;;;;;0.40;0.40;;;;;;;;;;4977915;28;20222;-92
2024/02/19 05:05:16;;;;;;;0.45;0.45;;;;;;;;;;4986631;28;20186;-94
2024/02/19 05:08:23;;;;;;;0.45;0.45;;;;;;;;;;4986614;28;20330;-93
2024/02/19 05:11:28;;;;;;;1.67;0.95;;;;;;;;;;4977980;28;20218;-93
2024/02/19 05:14:33;;;;;;;0.40;0.40;;;;;;;;;;4967962;28;20210;-94
2024/02/19 05:17:39;;;;;;;0.30;0.30;;;;;;;;;;4967608;29;20195;-94
2024/02/19 05:20:44;;;;;;;0.47;0.47;;;;;;;;;;4965686;28;20194;-93
2024/02/19 05:23:50;;;;;;;0.30;0.30;;;;;;;;;;4967604;28;20226;-92
2024/02/19 05:26:55;;;;;;;0.30;0.30;;;;;;;;;;4966495;28;20954;-93
2024/02/19 05:30:00;;;;;;;0.43;0.43;;;;;;;;;;4965692;29;20186;-91
2024/02/19 05:33:07;;;;;;;0.40;0.40;;;;;;;;;;4966021;28;20190;-91
2024/02/19 05:36:17;;;;;;;0.30;0.30;;;;;;;;;;4977365;28;20199;-93
2024/02/19 05:39:22;;;;;;;0.30;0.30;;;;;;;;;;4978561;28;20267;-91
2024/02/19 05:42:27;;;;;;;0.30;0.30;;;;;;;;;;4979764;28;20296;-93
2024/02/19 05:45:32;;;;;;;0.30;0.30;;;;;;;;;;4968732;28;20191;-93
2024/02/19 05:48:39;;;;;;;0.32;0.32;;;;;;;;;;4968801;29;20338;-93
2024/02/19 05:51:44;;;;;;;0.40;0.40;;;;;;;;;;4947991;29;20203;-93
2024/02/19 05:54:49;;;;;;;0.40;0.40;;;;;;;;;;4959494;28;20319;-91
2024/02/19 05:57:54;;;;;;;0.30;0.30;;;;;;;;;;4967793;28;20205;-91
2024/02/19 06:01:00;;;;;;;0.30;0.30;;;;;;;;;;4949455;28;20496;-93
2024/02/19 06:04:07;;;;;;;0.30;0.30;;;;;;;;;;4968095;29;20210;-91
2024/02/19 06:07:12;;;;;;;0.30;0.30;;;;;;;;;;4966958;28;20218;-92
2024/02/19 06:10:17;;;;;;;0.32;0.32;;;;;;;;;;4966487;28;20187;-92
2024/02/19 06:13:25;;;;;;;0.50;0.50;;;;;;;;;;4966869;28;20199;-92
2024/02/19 06:16:29;;;;;;;0.30;0.30;;;;;;;;;;4950901;28;20175;-93
2024/02/19 06:19:37;;;;;;;0.30;0.30;;;;;;;;;;4985619;28;20674;-90
2024/02/19 06:22:42;;;;;;;0.40;0.40;;;;;;;;;;4984894;28;20205;-92
2024/02/19 06:25:48;;;;;;;0.32;0.32;;;;;;;;;;4985403;28;20189;-91
2024/02/19 06:28:53;;;;;;;0.35;0.35;;;;;;;;;;4947920;29;20266;-91
2024/02/19 06:31:58;;;;;;;0.30;0.30;;;;;;;;;;4950152;28;20240;-92
2024/02/19 06:35:04;;;;;;;0.30;0.30;;;;;;;;;;4947691;29;20259;-92
2024/02/19 06:38:11;;;;;;;1.00;0.45;;;;;;;;;;4948191;29;20206;-92
2024/02/19 06:41:16;;;;;;;0.30;0.30;;;;;;;;;;4951736;28;20190;-91
2024/02/19 06:44:24;;;;;;;0.30;0.30;;;;;;;;;;4945944;29;20226;-91
2024/02/19 06:47:29;;;;;;;0.40;0.40;;;;;;;;;;4948652;28;20191;-91
2024/02/19 06:50:35;;;;;;;0.40;0.40;;;;;;;;;;4946949;28;20661;-92
2024/02/19 06:53:40;;;;;;;0.32;0.32;;;;;;;;;;4946096;28;20308;-92
2024/02/19 06:56:46;;;;;;;0.30;0.30;;;;;;;;;;4947659;28;20187;-91
2024/02/19 06:59:52;;;;;;;0.45;0.45;;;;;;;;;;4946583;29;20647;-91
2024/02/19 07:02:58;;;;;;;0.40;0.40;;;;;;;;;;4948145;29;20267;-89
2024/02/19 07:06:07;;;;;;;0.40;0.40;;;;;;;;;;4948485;28;20286;-92
2024/02/19 07:09:12;;;;;;;0.30;0.30;;;;;;;;;;4950395;28;20199;-93
2024/02/19 07:12:17;;;;;;;0.30;0.30;;;;;;;;;;4947720;28;20207;-92
2024/02/19 07:15:23;;;;;;;0.30;0.30;;;;;;;;;;4946709;28;20200;-92
2024/02/19 07:18:29;;;;;;;0.30;0.30;;;;;;;;;;4946477;28;20184;-92
2024/02/19 07:21:36;;;;;;;0.30;0.30;;;;;;;;;;4947900;28;20227;-90
2024/02/19 07:24:42;;;;;;;0.30;0.30;;;;;;;;;;4946894;28;20191;-91
2024/02/19 07:27:48;;;;;;;0.30;0.30;;;;;;;;;;4951044;28;20275;-91
2024/02/19 07:30:55;;;;;;;0.32;0.32;;;;;;;;;;4952881;28;20184;-91
2024/02/19 07:34:01;;;;;;;1.83;1.17;;;;;;;;;;4963312;28;20717;-91
2024/02/19 07:37:09;;;;;;;2.15;1.00;;;;;;;;;;4963306;28;20199;-91
2024/02/19 07:40:17;;;;;;;0.85;0.80;;;;;;;;;;4951334;29;20204;-92
2024/02/19 07:43:23;;;;;;;1.27;0.90;;;;;;;;;;4957935;29;20226;-90
2024/02/19 07:46:28;;;;;;;1.55;1.00;;;;;;;;;;4964622;28;20190;-90
2024/02/19 07:49:35;;;;;;;3.60;1.00;;;;;;;;;;4949086;28;20279;-91
2024/02/19 07:52:43;;;;;;;2.28;0.80;;;;;;;;;;4962724;28;20210;-88
2024/02/19 07:55:50;;;;;;;2.75;0.90;;;;;;;;;;4968400;28;20202;-90
2024/02/19 07:58:55;;;;;;;11.27;3.55;;;;;;;;;;4961768;29;20214;-91
2024/02/19 08:02:01;;;;;;;8.85;2.83;;;;;;;;;;4965805;29;20218;-92
2024/02/19 08:05:07;;;;;;;4.60;1.10;;;;;;;;;;4967297;28;20206;-92
2024/02/19 08:08:15;;;;;;;6.00;1.00;;;;;;;;;;4960171;28;20233;-91
2024/02/19 08:11:21;;;;;;;3.38;0.98;;;;;;;;;;4969849;28;20199;-93
2024/02/19 08:14:28;;;;;;;1.02;0.70;;;;;;;;;;4960841;28;20190;-90
2024/02/19 08:17:39;;;;;;;1.60;0.80;;;;;;;;;;4976239;28;20263;-90
2024/02/19 08:20:46;;;;;;;2.10;0.90;;;;;;;;;;4962318;29;20201;-90
2024/02/19 08:23:52;;;;;;;2.25;1.00;;;;;;;;;;4958242;28;20323;-91
2024/02/19 08:26:58;;;;;;;2.08;0.90;;;;;;;;;;4951427;29;20207;-92
2024/02/19 08:30:04;;;;;;;2.38;1.23;;;;;;;;;;4965430;28;20202;-91
2024/02/19 08:33:09;;;;;;;1.38;1.02;;;;;;;;;;4958197;29;20210;-91
2024/02/19 08:36:14;;;;;;;1.05;0.88;;;;;;;;;;4955818;29;20194;-89
2024/02/19 08:39:21;;;;;;;3.03;1.20;;;;;;;;;;4961119;28;20202;-90
2024/02/19 08:42:26;;;;;;;4.22;1.30;;;;;;;;;;4967705;28;20222;-90
2024/02/19 08:45:33;;;;;;;5.50;1.60;;;;;;;;;;4961574;28;20199;-91
2024/02/19 08:48:38;;;;;;;2.95;1.58;;;;;;;;;;4968469;28;20215;-92
2024/02/19 08:51:45;;;;;;;2.22;1.23;;;;;;;;;;4958116;29;20185;-92
2024/02/19 08:54:53;;;;;;;5.00;1.58;;;;;;;;;;4958635;28;20210;-91
2024/02/19 08:57:59;;;;;;;3.35;1.50;;;;;;;;;;4957119;28;20219;-91
2024/02/19 09:01:06;;;;;;;3.22;1.42;;;;;;;;;;4964826;28;20231;-90
2024/02/19 09:04:11;;;;;;;5.22;1.50;;;;;;;;;;4964556;29;20214;-91
2024/02/19 09:07:16;;;;;;;2.13;1.35;;;;;;;;;;4952274;28;20199;-90
2024/02/19 09:10:23;;;;;;;4.07;1.60;;;;;;;;;;4962942;29;20194;-91
2024/02/19 09:13:28;;;;;;;2.20;1.40;;;;;;;;;;4969360;28;20678;-90
2024/02/19 09:16:34;;;;;;;2.53;1.60;;;;;;;;;;4967838;28;20186;-92
2024/02/19 09:19:39;;;;;;;2.65;1.70;;;;;;;;;;4958935;28;20206;-92
2024/02/19 09:22:45;;;;;;;2.55;1.58;;;;;;;;;;4966912;28;20262;-92
2024/02/19 09:25:52;;;;;;;2.72;1.58;;;;;;;;;;4956764;28;20283;-90
2024/02/19 09:28:57;;;;;;;4.30;1.65;;;;;;;;;;4965994;29;20214;-92
2024/02/19 09:32:03;;;;;;;3.10;1.77;;;;;;;;;;4960415;29;20224;-90
2024/02/19 09:35:09;;;;;;;6.88;1.92;;;;;;;;;;4957036;29;20339;-90
2024/02/19 09:38:15;;;;;;;5.85;2.88;;;;;;;;;;4952956;28;20277;-91
2024/02/19 09:41:22;;;;;;;5.25;2.10;;;;;;;;;;4960128;28;20187;-90
2024/02/19 09:44:29;;;;;;;4.78;1.80;;;;;;;;;;4967690;28;20353;-90
2024/02/19 09:47:36;;;;;;;8.20;2.10;;;;;;;;;;4960580;28;20214;-89
2024/02/19 09:50:47;;;;;;;4.00;1.88;;;;;;;;;;4969825;28;20258;-92
2024/02/19 09:53:53;;;;;;;2.35;1.42;;;;;;;;;;4968123;28;20199;-92
2024/02/19 09:57:02;;;;;;;6.32;1.90;;;;;;;;;;4966101;28;20246;-91
2024/02/19 10:00:09;;;;;;;8.05;2.13;;;;;;;;;;4969137;28;20338;-92
2024/02/19 10:03:18;;;;;;;7.28;2.30;;;;;;;;;;4963542;28;20223;-91
2024/02/19 10:09:50;;;;;;;3.42;1.92;;;;;;;;;;4965763;28;20207;-90
2024/02/19 10:13:06;;;;;;;6.88;2.80;;;;;;;;;;4950539;29;20195;-90
2024/02/19 10:16:12;;;;;;;4.22;2.00;;;;;;;;;;4950842;28;20251;-92
2024/02/19 10:19:17;;;;;;;3.55;2.10;;;;;;;;;;4958019;28;20246;-92
2024/02/19 10:22:24;;;;;;;3.78;2.10;;;;;;;;;;4947552;28;20658;-91
2024/02/19 10:25:29;;;;;;;4.30;1.65;;;;;;;;;;4970388;28;20182;-91
2024/02/19 10:28:39;;;;;;;4.55;2.22;;;;;;;;;;4967267;28;20198;-92
2024/02/19 10:31:44;;;;;;;5.43;2.30;;;;;;;;;;4954047;28;20194;-91
2024/02/19 10:34:49;;;;;;;4.55;2.00;;;;;;;;;;4946873;28;20219;-92
2024/02/19 10:37:58;;;;;;;3.75;2.03;;;;;;;;;;4953821;28;20202;-92
2024/02/19 10:41:03;;;;;;;3.55;1.70;;;;;;;;;;4965405;29;20246;-90
2024/02/19 10:44:10;;;;;;;2.95;1.70;;;;;;;;;;4953845;28;20241;-91
2024/02/19 10:47:15;;;;;;;4.22;1.48;;;;;;;;;;4963777;28;20218;-92
2024/02/19 10:50:21;;;;;;;2.30;1.33;;;;;;;;;;4966208;29;20575;-91
2024/02/19 10:53:29;;;;;;;3.35;1.30;;;;;;;;;;4952573;29;20191;-91
2024/02/19 10:56:39;;;;;;;5.20;1.80;;;;;;;;;;4965095;28;20230;-92
2024/02/19 10:59:46;;;;;;;5.97;1.70;;;;;;;;;;4959871;29;20202;-91
2024/02/19 11:03:03;;;;;;;2.92;1.40;;;;;;;;;;4963577;28;20214;-92
2024/02/19 11:06:08;;;;;;;4.68;1.77;;;;;;;;;;4968763;28;20214;-91
2024/02/19 11:09:14;;;;;;;2.42;1.27;;;;;;;;;;4949573;28;20207;-92
2024/02/19 11:12:22;;;;;;;2.42;1.35;;;;;;;;;;4959814;28;20272;-91
2024/02/19 11:15:29;;;;;;;1.98;1.20;;;;;;;;;;4957377;29;20279;-92
2024/02/19 11:18:35;;;;;;;3.72;1.35;;;;;;;;;;4963762;28;20197;-91
2024/02/19 11:21:40;;;;;;;3.05;1.15;;;;;;;;;;4965214;28;20218;-91
2024/02/19 11:24:45;;;;;;;4.00;1.30;;;;;;;;;;4962109;28;20226;-90
2024/02/19 11:27:51;;;;;;;4.00;1.55;;;;;;;;;;4966145;28;20190;-91
2024/02/19 11:31:01;;;;;;;3.63;1.33;;;;;;;;;;4962460;28;20273;-90
2024/02/19 11:34:09;;;;;;;9.23;1.63;;;;;;;;;;4970930;28;20202;-91
2024/02/19 11:37:14;;;;;;;3.45;1.25;;;;;;;;;;4969011;28;20198;-93
2024/02/19 11:40:20;;;;;;;4.50;1.45;;;;;;;;;;4965535;28;20201;-92
2024/02/19 11:43:39;;;;;;;2.92;1.40;;;;;;;;;;4966257;28;20215;-92
2024/02/19 11:46:45;;;;;;;3.58;1.25;;;;;;;;;;4954829;29;20203;-90
2024/02/19 11:49:51;;;;;;;2.83;1.40;;;;;;;;;;4973222;28;20189;-91
2024/02/19 11:52:58;;;;;;;4.28;2.17;;;;;;;;;;4972113;28;20674;-91
2024/02/19 11:56:03;;;;;;;2.97;1.40;;;;;;;;;;4960005;28;20246;-90
2024/02/19 11:59:10;;;;;;;2.83;1.60;;;;;;;;;;4971013;28;20575;-91
2024/02/19 12:02:18;;;;;;;3.38;1.50;;;;;;;;;;4975328;28;20259;-91
2024/02/19 12:05:24;;;;;;;4.43;1.30;;;;;;;;;;4968313;29;20185;-92
2024/02/19 12:08:30;;;;;;;1.77;1.10;;;;;;;;;;4950720;29;20206;-91
2024/02/19 12:11:35;;;;;;;3.53;1.60;;;;;;;;;;4948019;29;20674;-91
2024/02/19 12:14:43;;;;;;;3.03;1.48;;;;;;;;;;4951236;29;20199;-90
2024/02/19 12:17:53;;;;;;;2.20;1.60;;;;;;;;;;4962951;28;20669;-91
2024/02/19 12:20:59;;;;;;;2.78;1.40;;;;;;;;;;4957920;29;20194;-90
2024/02/19 12:24:05;;;;;;;5.93;1.67;;;;;;;;;;4957920;28;20223;-91
2024/02/19 12:27:11;;;;;;;4.00;1.63;;;;;;;;;;4957367;29;20192;-92
2024/02/19 12:30:17;;;;;;;2.13;1.23;;;;;;;;;;4970249;28;20173;-91
2024/02/19 12:33:23;;;;;;;2.65;1.40;;;;;;;;;;4967110;28;20206;-91
2024/02/19 12:36:28;;;;;;;2.67;1.35;;;;;;;;;;4961900;29;20194;-90
2024/02/19 12:39:33;;;;;;;3.65;1.02;;;;;;;;;;4949294;29;20211;-91
2024/02/19 12:42:39;;;;;;;2.58;0.90;;;;;;;;;;4960423;28;20206;-91
2024/02/19 12:45:44;;;;;;;5.13;0.90;;;;;;;;;;4954493;29;20183;-90
2024/02/19 12:48:51;;;;;;;3.20;1.23;;;;;;;;;;4973651;28;20692;-92
2024/02/19 12:51:57;;;;;;;3.53;1.50;;;;;;;;;;4975955;28;20351;-90
2024/02/19 12:55:02;;;;;;;4.07;1.50;;;;;;;;;;4961761;28;20288;-92
2024/02/19 12:58:08;;;;;;;4.22;1.20;;;;;;;;;;4959819;29;20199;-91
2024/02/19 13:01:13;;;;;;;4.82;1.38;;;;;;;;;;4957172;29;20686;-91
2024/02/19 13:04:19;;;;;;;7.50;1.52;;;;;;;;;;4967349;29;20249;-91
2024/02/19 13:07:25;;;;;;;5.57;1.33;;;;;;;;;;4953779;29;20195;-92
2024/02/19 13:10:31;;;;;;;3.90;1.80;;;;;;;;;;4961094;29;20342;-92
2024/02/19 13:13:37;;;;;;;5.80;1.70;;;;;;;;;;4964578;28;20227;-92
2024/02/19 13:16:44;;;;;;;8.93;3.22;;;;;;;;;;4955682;29;20198;-91
2024/02/19 13:19:51;;;;;;;5.05;2.03;;;;;;;;;;4959290;28;20234;-92
2024/02/19 13:22:56;;;;;;;5.50;1.77;;;;;;;;;;4966511;28;20210;-91
2024/02/19 13:26:02;;;;;;;6.25;1.98;;;;;;;;;;4955237;28;20191;-91
2024/02/19 13:29:08;;;;;;;5.45;1.90;;;;;;;;;;4954339;29;20674;-92
2024/02/19 13:32:17;;;;;;;8.35;2.28;;;;;;;;;;4979724;28;20205;-90
2024/02/19 13:35:24;;;;;;;5.22;2.00;;;;;;;;;;4972438;28;20242;-90
2024/02/19 13:38:30;;;;;;;5.82;2.00;;;;;;;;;;4968405;28;20254;-92
2024/02/19 13:41:35;;;;;;;8.35;3.00;;;;;;;;;;4960729;28;20198;-91
2024/02/19 13:44:41;;;;;;;10.60;3.33;;;;;;;;;;4972510;28;20606;-91
2024/02/19 13:47:47;;;;;;;9.98;3.67;;;;;;;;;;4950401;28;20246;-90
2024/02/19 13:50:55;;;;;;;13.90;4.65;;;;;;;;;;4951327;29;20268;-92
2024/02/19 13:54:01;;;;;;;6.05;2.95;;;;;;;;;;4957072;28;20214;-92
2024/02/19 13:57:06;;;;;;;4.22;1.88;;;;;;;;;;4985032;28;20250;-92
2024/02/19 14:00:12;;;;;;;8.88;2.28;;;;;;;;;;4962845;28;20275;-91
2024/02/19 14:03:19;;;;;;;7.50;2.58;;;;;;;;;;4958597;29;20280;-91
2024/02/19 14:06:29;;;;;;;6.57;2.42;;;;;;;;;;4965174;29;20198;-90
2024/02/19 14:09:35;;;;;;;7.72;2.30;;;;;;;;;;4965025;29;20195;-88
2024/02/19 14:12:40;;;;;;;5.80;2.35;;;;;;;;;;4964013;28;20195;-91
2024/02/19 14:15:46;;;;;;;12.13;3.63;;;;;;;;;;4965100;29;20670;-92
2024/02/19 14:18:51;;;;;;;5.55;2.40;;;;;;;;;;4954101;28;20202;-90
2024/02/19 14:21:57;;;;;;;6.53;2.60;;;;;;;;;;4955142;29;20206;-91
2024/02/19 14:25:03;;;;;;;8.52;2.28;;;;;;;;;;4959753;29;20277;-91
2024/02/19 14:28:09;;;;;;;6.05;2.30;;;;;;;;;;4955445;28;20292;-90
2024/02/19 14:31:15;;;;;;;6.20;1.73;;;;;;;;;;4947974;29;20187;-91
2024/02/19 14:34:20;;;;;;;4.32;1.55;;;;;;;;;;4964907;29;20338;-91
2024/02/19 14:37:28;;;;;;;3.90;1.70;;;;;;;;;;4958453;29;20203;-93
2024/02/19 14:40:33;;;;;;;4.70;1.88;;;;;;;;;;4963844;28;20693;-92
2024/02/19 14:43:38;;;;;;;5.15;2.35;;;;;;;;;;4956355;29;20242;-92
2024/02/19 14:46:43;;;;;;;6.85;2.00;;;;;;;;;;4964469;29;20342;-92
2024/02/19 14:49:49;;;;;;;8.40;2.45;;;;;;;;;;4951192;28;20211;-92
2024/02/19 14:52:55;;;;;;;4.80;2.00;;;;;;;;;;4963192;29;20294;-92
2024/02/19 14:56:02;;;;;;;3.70;1.70;;;;;;;;;;4962731;28;20202;-91
2024/02/19 14:59:07;;;;;;;3.35;1.55;;;;;;;;;;4954185;29;20219;-92
2024/02/19 15:02:13;;;;;;;5.65;1.90;;;;;;;;;;4954024;28;20662;-92
2024/02/19 15:05:18;;;;;;;8.68;2.00;;;;;;;;;;4966849;28;20229;-93
2024/02/19 15:08:25;;;;;;;6.50;2.13;;;;;;;;;;4959596;28;20206;-93
2024/02/19 15:11:31;;;;;;;9.85;2.97;;;;;;;;;;4964650;29;20213;-92
2024/02/19 15:14:36;;;;;;;7.30;1.98;;;;;;;;;;4958072;29;20206;-91
2024/02/19 15:17:42;;;;;;;6.00;1.73;;;;;;;;;;4971944;28;20202;-91
2024/02/19 15:20:47;;;;;;;8.25;1.90;;;;;;;;;;4965104;28;20207;-91
2024/02/19 15:23:53;;;;;;;7.70;1.67;;;;;;;;;;4955115;29;20357;-92
2024/02/19 15:26:59;;;;;;;6.20;1.77;;;;;;;;;;4951717;28;20257;-92
2024/02/19 15:30:05;;;;;;;5.78;2.20;;;;;;;;;;4963986;28;20194;-90
2024/02/19 15:33:11;;;;;;;8.60;2.42;;;;;;;;;;4970427;28;20202;-90
2024/02/19 15:36:16;;;;;;;7.90;2.83;;;;;;;;;;4955786;28;20222;-92
2024/02/19 15:39:23;;;;;;;9.30;3.15;;;;;;;;;;4969744;28;20198;-90
2024/02/19 15:42:37;;;;;;;7.55;2.17;;;;;;;;;;4968430;28;20251;-92
2024/02/19 15:45:43;;;;;;;5.05;1.77;;;;;;;;;;4967214;29;20287;-91
2024/02/19 15:48:48;;;;;;;3.83;1.40;;;;;;;;;;4968808;28;20217;-91
2024/02/19 15:51:54;;;;;;;2.47;1.27;;;;;;;;;;4959319;28;20201;-92
2024/02/19 15:55:02;;;;;;;6.22;1.77;;;;;;;;;;4967855;29;20201;-92
2024/02/19 15:58:08;;;;;;;6.38;1.58;;;;;;;;;;4969234;28;20191;-92
2024/02/19 16:01:14;;;;;;;4.57;1.40;;;;;;;;;;4970188;28;20564;-93
2024/02/19 16:04:22;;;;;;;5.25;1.42;;;;;;;;;;4962016;28;20290;-93
2024/02/19 16:07:27;;;;;;;3.50;1.67;;;;;;;;;;4950107;28;20265;-90
2024/02/19 16:10:34;;;;;;;4.18;1.80;;;;;;;;;;4951886;28;20187;-91
2024/02/19 16:13:40;;;;;;;6.15;1.70;;;;;;;;;;4968853;28;20214;-91
2024/02/19 16:16:45;;;;;;;5.85;2.15;;;;;;;;;;4967994;28;20270;-91
2024/02/19 16:19:53;;;;;;;8.80;2.80;;;;;;;;;;4967557;28;20677;-91
2024/02/19 16:22:59;;;;;;;11.52;3.85;;;;;;;;;;4969793;29;20205;-91
2024/02/19 16:26:09;;;;;;;7.20;2.85;;;;;;;;;;4980061;28;20257;-92
2024/02/19 16:29:15;;;;;;;10.20;3.00;;;;;;;;;;4975653;28;20206;-90
2024/02/19 16:32:20;;;;;;;9.32;3.55;;;;;;;;;;4968122;29;20217;-93
2024/02/19 16:35:25;;;;;;;6.85;2.45;;;;;;;;;;4961380;28;20283;-92
2024/02/19 16:38:32;;;;;;;11.05;3.30;;;;;;;;;;4989489;28;20244;-92
2024/02/19 16:41:39;;;;;;;10.27;2.80;;;;;;;;;;4963873;28;20210;-91
2024/02/19 16:44:45;;;;;;;5.90;2.13;;;;;;;;;;4961333;28;20229;-91
2024/02/19 16:47:51;;;;;;;5.68;1.65;;;;;;;;;;4950822;28;20282;-92
2024/02/19 16:50:57;;;;;;;5.38;1.30;;;;;;;;;;4962353;29;20264;-92
2024/02/19 16:54:03;;;;;;;4.88;1.63;;;;;;;;;;4970766;28;20185;-90
2024/02/19 16:57:10;;;;;;;8.65;2.17;;;;;;;;;;4970861;28;20713;-90
2024/02/19 17:00:17;;;;;;;6.60;1.77;;;;;;;;;;4968331;28;20301;-92
2024/02/19 17:03:22;;;;;;;7.72;2.88;;;;;;;;;;4970196;28;20214;-90
2024/02/19 17:06:27;;;;;;;3.78;1.13;;;;;;;;;;4953645;28;20187;-90
2024/02/19 17:09:34;;;;;;;3.72;1.80;;;;;;;;;;4949994;28;20752;-92
2024/02/19 17:12:41;;;;;;;5.03;1.60;;;;;;;;;;4962482;28;20194;-92
2024/02/19 17:15:46;;;;;;;3.42;1.58;;;;;;;;;;4967521;28;20575;-92
2024/02/19 17:18:52;;;;;;;3.63;1.48;;;;;;;;;;4970151;28;20200;-92
2024/02/19 17:21:58;;;;;;;3.03;1.55;;;;;;;;;;4972553;29;20570;-91
2024/02/19 17:25:03;;;;;;;3.78;2.00;;;;;;;;;;4973319;28;20269;-91
2024/02/19 17:28:10;;;;;;;3.75;1.48;;;;;;;;;;4967695;28;20213;-91
2024/02/19 17:31:15;;;;;;;4.22;1.77;;;;;;;;;;4969413;28;20246;-93
2024/02/19 17:34:21;;;;;;;4.63;1.77;;;;;;;;;;4971182;28;20269;-92
2024/02/19 17:37:28;;;;;;;9.55;2.28;;;;;;;;;;4971079;28;20202;-92
2024/02/19 17:40:33;;;;;;;5.13;2.00;;;;;;;;;;4973212;28;20190;-92
2024/02/19 17:43:47;;;;;;;5.15;2.00;;;;;;;;;;4972919;28;20205;-93
2024/02/19 17:46:55;;;;;;;6.88;3.20;;;;;;;;;;4974791;28;20227;-91
2024/02/19 17:50:01;;;;;;;6.50;2.95;;;;;;;;;;4971092;28;20186;-93
2024/02/19 17:53:07;;;;;;;4.68;2.13;;;;;;;;;;4969615;29;20182;-93
2024/02/19 17:56:13;;;;;;;8.60;2.92;;;;;;;;;;4969566;28;20209;-92
2024/02/19 17:59:20;;;;;;;8.35;3.38;;;;;;;;;;4969915;29;20186;-90
2024/02/19 18:02:25;;;;;;;9.13;3.92;;;;;;;;;;4970394;28;20190;-92
2024/02/19 18:05:32;;;;;;;10.27;4.18;;;;;;;;;;4968499;28;20223;-94
2024/02/19 18:08:38;;;;;;;8.45;3.38;;;;;;;;;;4969542;28;20190;-92
2024/02/19 18:11:43;;;;;;;7.65;3.13;;;;;;;;;;4970320;28;20170;-93
2024/02/19 18:14:50;;;;;;;7.15;2.72;;;;;;;;;;4968389;28;20314;-92
2024/02/19 18:21:17;;;;;;;6.88;3.10;;;;;;;;;;4968867;28;20186;-93
2024/02/19 18:24:22;;;;;;;6.13;2.80;;;;;;;;;;4968218;28;20238;-92
2024/02/19 18:27:27;;;;;;;16.70;4.13;;;;;;;;;;4969279;28;20230;-92
2024/02/19 18:30:34;;;;;;;7.85;3.25;;;;;;;;;;4968333;28;20190;-92
2024/02/19 18:33:39;;;;;;;6.55;2.70;;;;;;;;;;4967906;28;20275;-91
2024/02/19 18:36:45;;;;;;;9.23;4.15;;;;;;;;;;4969467;28;20214;-92
2024/02/19 18:39:50;;;;;;;16.27;5.90;;;;;;;;;;4967950;28;20190;-93
2024/02/19 18:42:56;;;;;;;10.38;4.05;;;;;;;;;;4969233;29;20182;-93
2024/02/19 18:46:03;;;;;;;13.82;5.00;;;;;;;;;;4967413;29;20234;-93